sensor_id;sensor_type;location;lat;lon;timestamp;P1;durP1;ratioP1;P2;durP2;ratioP2
789;SDS011;378;48.844;9.156;2023-05-21T00:00:01;20.17;;;13.80;;
789;SDS011;378;48.844;9.156;2023-05-21T00:02:35;24.45;;;14.23;;
789;SDS011;378;48.844;9.156;2023-05-21T00:05:01;23.25;;;14.20;;
789;SDS011;378;48.844;9.156;2023-05-21T00:07:28;20.52;;;13.85;;
789;SDS011;378;48.844;9.156;2023-05-21T00:09:58;22.75;;;14.13;;
789;SDS011;378;48.844;9.156;2023-05-21T00:12:25;25.70;;;14.32;;
789;SDS011;378;48.844;9.156;2023-05-21T00:14:52;20.08;;;13.75;;
789;SDS011;378;48.844;9.156;2023-05-21T00:17:18;22.38;;;14.27;;
789;SDS011;378;48.844;9.156;2023-05-21T00:19:45;25.30;;;14.50;;
789;SDS011;378;48.844;9.156;2023-05-21T00:22:14;25.77;;;14.80;;
789;SDS011;378;48.844;9.156;2023-05-21T00:24:41;25.35;;;14.68;;
789;SDS011;378;48.844;9.156;2023-05-21T00:27:10;23.95;;;15.40;;
789;SDS011;378;48.844;9.156;2023-05-21T00:29:37;23.08;;;14.27;;
789;SDS011;378;48.844;9.156;2023-05-21T00:32:04;24.27;;;14.93;;
789;SDS011;378;48.844;9.156;2023-05-21T00:34:32;24.35;;;14.60;;
789;SDS011;378;48.844;9.156;2023-05-21T00:36:59;24.30;;;15.13;;
789;SDS011;378;48.844;9.156;2023-05-21T00:39:26;22.35;;;15.05;;
789;SDS011;378;48.844;9.156;2023-05-21T00:41:53;31.38;;;15.60;;
789;SDS011;378;48.844;9.156;2023-05-21T00:44:22;25.55;;;16.52;;
789;SDS011;378;48.844;9.156;2023-05-21T00:46:51;25.58;;;15.57;;
789;SDS011;378;48.844;9.156;2023-05-21T00:49:18;23.50;;;15.40;;
789;SDS011;378;48.844;9.156;2023-05-21T00:51:48;25.45;;;16.02;;
789;SDS011;378;48.844;9.156;2023-05-21T00:54:15;27.05;;;15.10;;
789;SDS011;378;48.844;9.156;2023-05-21T00:56:42;28.25;;;15.93;;
789;SDS011;378;48.844;9.156;2023-05-21T00:59:10;23.90;;;14.52;;
789;SDS011;378;48.844;9.156;2023-05-21T01:01:38;23.48;;;15.80;;
789;SDS011;378;48.844;9.156;2023-05-21T01:04:05;28.80;;;16.60;;
789;SDS011;378;48.844;9.156;2023-05-21T01:06:32;28.92;;;16.25;;
789;SDS011;378;48.844;9.156;2023-05-21T01:08:59;23.02;;;15.57;;
789;SDS011;378;48.844;9.156;2023-05-21T01:11:31;26.80;;;16.02;;
789;SDS011;378;48.844;9.156;2023-05-21T01:14:04;28.30;;;16.08;;
789;SDS011;378;48.844;9.156;2023-05-21T01:16:33;31.30;;;15.75;;
789;SDS011;378;48.844;9.156;2023-05-21T01:19:04;26.63;;;15.73;;
789;SDS011;378;48.844;9.156;2023-05-21T01:21:32;27.00;;;16.25;;
789;SDS011;378;48.844;9.156;2023-05-21T01:24:03;27.85;;;16.23;;
789;SDS011;378;48.844;9.156;2023-05-21T01:26:31;27.67;;;16.80;;
789;SDS011;378;48.844;9.156;2023-05-21T01:29:02;24.75;;;15.88;;
789;SDS011;378;48.844;9.156;2023-05-21T01:31:36;27.40;;;16.25;;
789;SDS011;378;48.844;9.156;2023-05-21T01:34:13;25.00;;;16.08;;
789;SDS011;378;48.844;9.156;2023-05-21T01:36:46;27.75;;;16.75;;
789;SDS011;378;48.844;9.156;2023-05-21T01:39:21;27.60;;;17.15;;
789;SDS011;378;48.844;9.156;2023-05-21T01:41:52;27.10;;;16.45;;
789;SDS011;378;48.844;9.156;2023-05-21T01:44:21;26.50;;;16.48;;
789;SDS011;378;48.844;9.156;2023-05-21T01:46:49;27.58;;;17.42;;
789;SDS011;378;48.844;9.156;2023-05-21T01:49:17;31.85;;;16.17;;
789;SDS011;378;48.844;9.156;2023-05-21T01:51:44;28.15;;;17.30;;
789;SDS011;378;48.844;9.156;2023-05-21T01:54:12;27.77;;;16.20;;
789;SDS011;378;48.844;9.156;2023-05-21T01:56:40;27.23;;;16.98;;
789;SDS011;378;48.844;9.156;2023-05-21T01:59:07;27.63;;;17.58;;
789;SDS011;378;48.844;9.156;2023-05-21T02:01:34;27.63;;;17.05;;
789;SDS011;378;48.844;9.156;2023-05-21T02:04:00;28.05;;;17.10;;
789;SDS011;378;48.844;9.156;2023-05-21T02:06:27;29.58;;;16.45;;
789;SDS011;378;48.844;9.156;2023-05-21T02:08:55;27.50;;;16.38;;
789;SDS011;378;48.844;9.156;2023-05-21T02:11:22;25.33;;;16.15;;
789;SDS011;378;48.844;9.156;2023-05-21T02:13:51;29.42;;;16.13;;
789;SDS011;378;48.844;9.156;2023-05-21T02:16:18;31.67;;;17.17;;
789;SDS011;378;48.844;9.156;2023-05-21T02:18:46;27.15;;;16.88;;
789;SDS011;378;48.844;9.156;2023-05-21T02:21:15;25.88;;;16.20;;
789;SDS011;378;48.844;9.156;2023-05-21T02:23:42;31.45;;;17.75;;
789;SDS011;378;48.844;9.156;2023-05-21T02:26:09;29.00;;;17.35;;
789;SDS011;378;48.844;9.156;2023-05-21T02:28:36;28.15;;;16.35;;
789;SDS011;378;48.844;9.156;2023-05-21T02:31:04;28.60;;;16.98;;
789;SDS011;378;48.844;9.156;2023-05-21T02:33:31;26.58;;;16.55;;
789;SDS011;378;48.844;9.156;2023-05-21T02:35:57;31.15;;;16.63;;
789;SDS011;378;48.844;9.156;2023-05-21T02:38:24;27.20;;;16.33;;
789;SDS011;378;48.844;9.156;2023-05-21T02:40:51;27.20;;;16.95;;
789;SDS011;378;48.844;9.156;2023-05-21T02:43:18;29.55;;;18.30;;
789;SDS011;378;48.844;9.156;2023-05-21T02:45:45;27.15;;;17.20;;
789;SDS011;378;48.844;9.156;2023-05-21T02:48:13;29.80;;;17.95;;
789;SDS011;378;48.844;9.156;2023-05-21T02:50:40;29.35;;;18.33;;
789;SDS011;378;48.844;9.156;2023-05-21T02:53:06;32.28;;;17.90;;
789;SDS011;378;48.844;9.156;2023-05-21T02:55:33;30.13;;;17.60;;
789;SDS011;378;48.844;9.156;2023-05-21T02:58:00;31.00;;;17.38;;
789;SDS011;378;48.844;9.156;2023-05-21T03:00:27;25.25;;;16.50;;
789;SDS011;378;48.844;9.156;2023-05-21T03:02:54;29.45;;;17.42;;
789;SDS011;378;48.844;9.156;2023-05-21T03:05:22;32.67;;;17.75;;
789;SDS011;378;48.844;9.156;2023-05-21T03:07:49;28.10;;;17.60;;
789;SDS011;378;48.844;9.156;2023-05-21T03:10:17;28.02;;;17.17;;
789;SDS011;378;48.844;9.156;2023-05-21T03:12:44;32.22;;;18.38;;
789;SDS011;378;48.844;9.156;2023-05-21T03:15:11;26.83;;;16.85;;
789;SDS011;378;48.844;9.156;2023-05-21T03:17:39;30.42;;;17.73;;
789;SDS011;378;48.844;9.156;2023-05-21T03:20:08;28.15;;;17.33;;
789;SDS011;378;48.844;9.156;2023-05-21T03:22:41;26.13;;;16.75;;
789;SDS011;378;48.844;9.156;2023-05-21T03:25:09;31.08;;;18.65;;
789;SDS011;378;48.844;9.156;2023-05-21T03:27:35;30.27;;;17.05;;
789;SDS011;378;48.844;9.156;2023-05-21T03:30:03;27.40;;;16.85;;
789;SDS011;378;48.844;9.156;2023-05-21T03:32:30;29.52;;;18.00;;
789;SDS011;378;48.844;9.156;2023-05-21T03:35:01;32.40;;;17.95;;
789;SDS011;378;48.844;9.156;2023-05-21T03:37:28;30.98;;;18.08;;
789;SDS011;378;48.844;9.156;2023-05-21T03:39:56;28.58;;;17.38;;
789;SDS011;378;48.844;9.156;2023-05-21T03:42:23;32.22;;;17.52;;
789;SDS011;378;48.844;9.156;2023-05-21T03:44:50;27.75;;;17.65;;
789;SDS011;378;48.844;9.156;2023-05-21T03:47:17;32.83;;;18.77;;
789;SDS011;378;48.844;9.156;2023-05-21T03:49:43;32.47;;;18.33;;
789;SDS011;378;48.844;9.156;2023-05-21T03:52:10;32.33;;;17.92;;
789;SDS011;378;48.844;9.156;2023-05-21T03:54:37;28.52;;;17.95;;
789;SDS011;378;48.844;9.156;2023-05-21T03:57:05;29.58;;;18.15;;
789;SDS011;378;48.844;9.156;2023-05-21T03:59:32;28.85;;;17.70;;
789;SDS011;378;48.844;9.156;2023-05-21T04:01:59;34.17;;;17.98;;
789;SDS011;378;48.844;9.156;2023-05-21T04:04:26;28.42;;;17.35;;
789;SDS011;378;48.844;9.156;2023-05-21T04:06:53;29.85;;;17.35;;
789;SDS011;378;48.844;9.156;2023-05-21T04:09:20;29.95;;;17.80;;
789;SDS011;378;48.844;9.156;2023-05-21T04:11:47;30.27;;;17.95;;
789;SDS011;378;48.844;9.156;2023-05-21T04:14:15;27.75;;;17.33;;
789;SDS011;378;48.844;9.156;2023-05-21T04:16:42;30.95;;;18.50;;
789;SDS011;378;48.844;9.156;2023-05-21T04:19:09;30.80;;;18.45;;
789;SDS011;378;48.844;9.156;2023-05-21T04:21:35;30.27;;;17.83;;
789;SDS011;378;48.844;9.156;2023-05-21T04:24:02;30.08;;;17.88;;
789;SDS011;378;48.844;9.156;2023-05-21T04:26:29;31.70;;;18.48;;
789;SDS011;378;48.844;9.156;2023-05-21T04:28:57;28.63;;;17.15;;
789;SDS011;378;48.844;9.156;2023-05-21T04:31:28;26.60;;;16.58;;
789;SDS011;378;48.844;9.156;2023-05-21T04:33:55;30.27;;;17.35;;
789;SDS011;378;48.844;9.156;2023-05-21T04:36:22;26.95;;;17.33;;
789;SDS011;378;48.844;9.156;2023-05-21T04:38:49;29.25;;;17.77;;
789;SDS011;378;48.844;9.156;2023-05-21T04:41:16;26.50;;;16.38;;
789;SDS011;378;48.844;9.156;2023-05-21T04:43:45;25.30;;;16.20;;
789;SDS011;378;48.844;9.156;2023-05-21T04:46:12;28.77;;;16.65;;
789;SDS011;378;48.844;9.156;2023-05-21T04:48:40;24.38;;;16.55;;
789;SDS011;378;48.844;9.156;2023-05-21T04:51:07;25.85;;;15.95;;
789;SDS011;378;48.844;9.156;2023-05-21T04:53:34;26.52;;;16.73;;
789;SDS011;378;48.844;9.156;2023-05-21T04:56:00;29.67;;;16.92;;
789;SDS011;378;48.844;9.156;2023-05-21T04:58:27;28.90;;;16.77;;
789;SDS011;378;48.844;9.156;2023-05-21T05:00:56;27.02;;;16.40;;
789;SDS011;378;48.844;9.156;2023-05-21T05:03:26;25.25;;;15.20;;
789;SDS011;378;48.844;9.156;2023-05-21T05:05:55;26.02;;;16.25;;
789;SDS011;378;48.844;9.156;2023-05-21T05:08:22;25.52;;;16.10;;
789;SDS011;378;48.844;9.156;2023-05-21T05:10:49;27.70;;;16.17;;
789;SDS011;378;48.844;9.156;2023-05-21T05:13:16;27.88;;;17.52;;
789;SDS011;378;48.844;9.156;2023-05-21T05:15:43;26.88;;;16.33;;
789;SDS011;378;48.844;9.156;2023-05-21T05:18:10;26.08;;;17.02;;
789;SDS011;378;48.844;9.156;2023-05-21T05:20:37;23.65;;;15.32;;
789;SDS011;378;48.844;9.156;2023-05-21T05:23:05;22.75;;;14.93;;
789;SDS011;378;48.844;9.156;2023-05-21T05:25:32;24.90;;;16.83;;
789;SDS011;378;48.844;9.156;2023-05-21T05:27:59;24.95;;;15.32;;
789;SDS011;378;48.844;9.156;2023-05-21T05:30:26;25.88;;;16.67;;
789;SDS011;378;48.844;9.156;2023-05-21T05:32:52;25.30;;;14.80;;
789;SDS011;378;48.844;9.156;2023-05-21T05:35:19;24.95;;;16.02;;
789;SDS011;378;48.844;9.156;2023-05-21T05:37:46;27.85;;;15.90;;
789;SDS011;378;48.844;9.156;2023-05-21T05:40:14;24.73;;;14.90;;
789;SDS011;378;48.844;9.156;2023-05-21T05:42:41;24.00;;;14.90;;
789;SDS011;378;48.844;9.156;2023-05-21T05:45:08;20.83;;;13.82;;
789;SDS011;378;48.844;9.156;2023-05-21T05:47:36;24.05;;;15.35;;
789;SDS011;378;48.844;9.156;2023-05-21T05:50:03;25.33;;;16.13;;
789;SDS011;378;48.844;9.156;2023-05-21T05:52:31;25.65;;;15.60;;
789;SDS011;378;48.844;9.156;2023-05-21T05:54:57;25.05;;;16.35;;
789;SDS011;378;48.844;9.156;2023-05-21T05:57:26;22.45;;;14.82;;
789;SDS011;378;48.844;9.156;2023-05-21T05:59:52;23.05;;;15.20;;
789;SDS011;378;48.844;9.156;2023-05-21T06:02:20;25.77;;;15.32;;
789;SDS011;378;48.844;9.156;2023-05-21T06:04:47;22.55;;;14.48;;
789;SDS011;378;48.844;9.156;2023-05-21T06:07:13;22.83;;;14.48;;
789;SDS011;378;48.844;9.156;2023-05-21T06:09:40;24.15;;;14.48;;
789;SDS011;378;48.844;9.156;2023-05-21T06:12:07;22.20;;;15.02;;
789;SDS011;378;48.844;9.156;2023-05-21T06:14:35;22.02;;;14.35;;
789;SDS011;378;48.844;9.156;2023-05-21T06:17:02;23.70;;;15.40;;
789;SDS011;378;48.844;9.156;2023-05-21T06:19:29;22.13;;;14.70;;
789;SDS011;378;48.844;9.156;2023-05-21T06:21:56;21.98;;;14.40;;
789;SDS011;378;48.844;9.156;2023-05-21T06:24:23;20.67;;;14.77;;
789;SDS011;378;48.844;9.156;2023-05-21T06:26:49;27.30;;;15.43;;
789;SDS011;378;48.844;9.156;2023-05-21T06:29:16;25.85;;;15.35;;
789;SDS011;378;48.844;9.156;2023-05-21T06:31:44;21.27;;;13.80;;
789;SDS011;378;48.844;9.156;2023-05-21T06:34:11;24.10;;;13.75;;
789;SDS011;378;48.844;9.156;2023-05-21T06:36:38;20.33;;;12.85;;
789;SDS011;378;48.844;9.156;2023-05-21T06:39:05;20.05;;;12.48;;
789;SDS011;378;48.844;9.156;2023-05-21T06:41:32;19.33;;;12.95;;
789;SDS011;378;48.844;9.156;2023-05-21T06:43:59;20.35;;;13.00;;
789;SDS011;378;48.844;9.156;2023-05-21T06:46:26;20.02;;;12.50;;
789;SDS011;378;48.844;9.156;2023-05-21T06:48:54;18.25;;;12.15;;
789;SDS011;378;48.844;9.156;2023-05-21T06:51:21;19.35;;;11.57;;
789;SDS011;378;48.844;9.156;2023-05-21T06:53:47;19.48;;;11.77;;
789;SDS011;378;48.844;9.156;2023-05-21T06:56:15;21.35;;;11.90;;
789;SDS011;378;48.844;9.156;2023-05-21T06:58:41;18.38;;;11.55;;
789;SDS011;378;48.844;9.156;2023-05-21T07:01:08;17.13;;;12.90;;
789;SDS011;378;48.844;9.156;2023-05-21T07:03:36;20.52;;;12.65;;
789;SDS011;378;48.844;9.156;2023-05-21T07:06:04;18.75;;;12.38;;
789;SDS011;378;48.844;9.156;2023-05-21T07:08:31;16.75;;;12.13;;
789;SDS011;378;48.844;9.156;2023-05-21T07:10:58;16.77;;;11.55;;
789;SDS011;378;48.844;9.156;2023-05-21T07:13:25;19.13;;;11.38;;
789;SDS011;378;48.844;9.156;2023-05-21T07:15:52;15.52;;;10.95;;
789;SDS011;378;48.844;9.156;2023-05-21T07:18:19;15.70;;;11.10;;
789;SDS011;378;48.844;9.156;2023-05-21T07:20:45;16.48;;;10.88;;
789;SDS011;378;48.844;9.156;2023-05-21T07:23:14;18.80;;;11.18;;
789;SDS011;378;48.844;9.156;2023-05-21T07:25:40;17.23;;;11.70;;
789;SDS011;378;48.844;9.156;2023-05-21T07:28:07;18.77;;;12.32;;
789;SDS011;378;48.844;9.156;2023-05-21T07:30:34;17.35;;;11.35;;
789;SDS011;378;48.844;9.156;2023-05-21T07:33:01;15.20;;;10.50;;
789;SDS011;378;48.844;9.156;2023-05-21T07:35:28;15.35;;;10.38;;
789;SDS011;378;48.844;9.156;2023-05-21T07:37:55;17.27;;;11.32;;
789;SDS011;378;48.844;9.156;2023-05-21T07:40:23;18.55;;;10.55;;
789;SDS011;378;48.844;9.156;2023-05-21T07:42:50;13.88;;;9.65;;
789;SDS011;378;48.844;9.156;2023-05-21T07:45:17;17.58;;;10.10;;
789;SDS011;378;48.844;9.156;2023-05-21T07:47:44;16.25;;;10.35;;
789;SDS011;378;48.844;9.156;2023-05-21T07:50:11;15.60;;;9.43;;
789;SDS011;378;48.844;9.156;2023-05-21T07:52:39;16.00;;;10.95;;
789;SDS011;378;48.844;9.156;2023-05-21T07:55:07;16.67;;;11.02;;
789;SDS011;378;48.844;9.156;2023-05-21T07:57:36;13.75;;;9.85;;
789;SDS011;378;48.844;9.156;2023-05-21T08:00:03;13.85;;;10.30;;
789;SDS011;378;48.844;9.156;2023-05-21T08:02:33;17.25;;;10.38;;
789;SDS011;378;48.844;9.156;2023-05-21T08:05:00;17.40;;;10.93;;
789;SDS011;378;48.844;9.156;2023-05-21T08:07:27;14.43;;;9.23;;
789;SDS011;378;48.844;9.156;2023-05-21T08:09:53;11.88;;;8.50;;
789;SDS011;378;48.844;9.156;2023-05-21T08:12:20;10.57;;;7.68;;
789;SDS011;378;48.844;9.156;2023-05-21T08:14:48;15.30;;;9.40;;
789;SDS011;378;48.844;9.156;2023-05-21T08:17:15;11.57;;;8.02;;
789;SDS011;378;48.844;9.156;2023-05-21T08:19:42;13.65;;;8.35;;
789;SDS011;378;48.844;9.156;2023-05-21T08:22:09;14.18;;;9.43;;
789;SDS011;378;48.844;9.156;2023-05-21T08:24:36;11.73;;;8.05;;
789;SDS011;378;48.844;9.156;2023-05-21T08:27:03;25.42;;;8.27;;
789;SDS011;378;48.844;9.156;2023-05-21T08:29:30;14.63;;;8.07;;
789;SDS011;378;48.844;9.156;2023-05-21T08:31:58;11.02;;;7.13;;
789;SDS011;378;48.844;9.156;2023-05-21T08:34:25;14.00;;;8.20;;
789;SDS011;378;48.844;9.156;2023-05-21T08:36:52;15.35;;;8.80;;
789;SDS011;378;48.844;9.156;2023-05-21T08:39:19;12.43;;;8.63;;
789;SDS011;378;48.844;9.156;2023-05-21T08:41:46;10.35;;;7.55;;
789;SDS011;378;48.844;9.156;2023-05-21T08:44:16;10.38;;;8.00;;
789;SDS011;378;48.844;9.156;2023-05-21T08:46:47;12.13;;;9.45;;
789;SDS011;378;48.844;9.156;2023-05-21T08:49:17;12.15;;;8.05;;
789;SDS011;378;48.844;9.156;2023-05-21T08:51:46;14.55;;;8.77;;
789;SDS011;378;48.844;9.156;2023-05-21T08:54:14;12.82;;;8.50;;
789;SDS011;378;48.844;9.156;2023-05-21T08:56:41;13.70;;;8.60;;
789;SDS011;378;48.844;9.156;2023-05-21T08:59:11;13.15;;;8.30;;
789;SDS011;378;48.844;9.156;2023-05-21T09:01:38;10.30;;;8.23;;
789;SDS011;378;48.844;9.156;2023-05-21T09:04:07;12.30;;;8.50;;
789;SDS011;378;48.844;9.156;2023-05-21T09:06:37;13.38;;;9.18;;
789;SDS011;378;48.844;9.156;2023-05-21T09:09:08;12.35;;;8.98;;
789;SDS011;378;48.844;9.156;2023-05-21T09:11:39;10.60;;;7.90;;
789;SDS011;378;48.844;9.156;2023-05-21T09:14:07;12.77;;;7.88;;
789;SDS011;378;48.844;9.156;2023-05-21T09:16:36;13.13;;;8.10;;
789;SDS011;378;48.844;9.156;2023-05-21T09:19:03;11.10;;;7.20;;
789;SDS011;378;48.844;9.156;2023-05-21T09:21:30;11.38;;;8.25;;
789;SDS011;378;48.844;9.156;2023-05-21T09:23:58;11.02;;;9.05;;
789;SDS011;378;48.844;9.156;2023-05-21T09:26:26;12.15;;;8.35;;
789;SDS011;378;48.844;9.156;2023-05-21T09:28:55;14.15;;;8.40;;
789;SDS011;378;48.844;9.156;2023-05-21T09:31:23;13.63;;;8.52;;
789;SDS011;378;48.844;9.156;2023-05-21T09:33:50;12.13;;;9.13;;
789;SDS011;378;48.844;9.156;2023-05-21T09:36:19;12.98;;;8.65;;
789;SDS011;378;48.844;9.156;2023-05-21T09:38:47;13.80;;;9.23;;
789;SDS011;378;48.844;9.156;2023-05-21T09:41:15;16.45;;;8.55;;
789;SDS011;378;48.844;9.156;2023-05-21T09:43:42;12.93;;;8.82;;
789;SDS011;378;48.844;9.156;2023-05-21T09:46:09;11.75;;;7.75;;
789;SDS011;378;48.844;9.156;2023-05-21T09:48:37;12.60;;;8.30;;
789;SDS011;378;48.844;9.156;2023-05-21T09:51:09;11.80;;;8.35;;
789;SDS011;378;48.844;9.156;2023-05-21T09:56:27;12.23;;;8.00;;
789;SDS011;378;48.844;9.156;2023-05-21T09:58:56;11.40;;;8.15;;
789;SDS011;378;48.844;9.156;2023-05-21T10:01:24;12.05;;;7.50;;
789;SDS011;378;48.844;9.156;2023-05-21T10:03:53;11.02;;;7.22;;
789;SDS011;378;48.844;9.156;2023-05-21T10:06:22;12.95;;;8.25;;
789;SDS011;378;48.844;9.156;2023-05-21T10:08:50;14.18;;;7.63;;
789;SDS011;378;48.844;9.156;2023-05-21T10:11:21;11.20;;;7.43;;
789;SDS011;378;48.844;9.156;2023-05-21T10:13:52;9.70;;;7.30;;
789;SDS011;378;48.844;9.156;2023-05-21T10:16:22;9.82;;;6.55;;
789;SDS011;378;48.844;9.156;2023-05-21T10:18:50;11.02;;;7.32;;
789;SDS011;378;48.844;9.156;2023-05-21T10:21:18;9.30;;;7.20;;
789;SDS011;378;48.844;9.156;2023-05-21T10:23:47;10.77;;;6.88;;
789;SDS011;378;48.844;9.156;2023-05-21T10:26:16;9.43;;;7.07;;
789;SDS011;378;48.844;9.156;2023-05-21T10:28:45;10.13;;;7.75;;
789;SDS011;378;48.844;9.156;2023-05-21T10:31:14;12.23;;;7.22;;
789;SDS011;378;48.844;9.156;2023-05-21T10:33:41;10.75;;;7.65;;
789;SDS011;378;48.844;9.156;2023-05-21T10:36:08;9.23;;;7.32;;
789;SDS011;378;48.844;9.156;2023-05-21T10:38:36;8.95;;;6.97;;
789;SDS011;378;48.844;9.156;2023-05-21T10:41:04;9.38;;;6.75;;
789;SDS011;378;48.844;9.156;2023-05-21T10:43:37;9.85;;;6.45;;
789;SDS011;378;48.844;9.156;2023-05-21T10:49:29;11.05;;;6.13;;
789;SDS011;378;48.844;9.156;2023-05-21T10:52:08;8.82;;;6.63;;
789;SDS011;378;48.844;9.156;2023-05-21T10:54:50;10.15;;;6.53;;
789;SDS011;378;48.844;9.156;2023-05-21T10:57:33;10.90;;;6.82;;
789;SDS011;378;48.844;9.156;2023-05-21T11:00:22;9.10;;;7.22;;
789;SDS011;378;48.844;9.156;2023-05-21T11:02:50;12.45;;;6.75;;
789;SDS011;378;48.844;9.156;2023-05-21T11:08:20;9.85;;;6.43;;
789;SDS011;378;48.844;9.156;2023-05-21T11:10:51;9.10;;;6.22;;
789;SDS011;378;48.844;9.156;2023-05-21T11:13:19;9.15;;;6.05;;
789;SDS011;378;48.844;9.156;2023-05-21T11:16:03;9.70;;;6.05;;
789;SDS011;378;48.844;9.156;2023-05-21T11:18:55;10.18;;;6.45;;
789;SDS011;378;48.844;9.156;2023-05-21T11:21:29;9.73;;;6.03;;
789;SDS011;378;48.844;9.156;2023-05-21T11:24:03;8.73;;;6.22;;
789;SDS011;378;48.844;9.156;2023-05-21T11:29:42;8.73;;;6.18;;
789;SDS011;378;48.844;9.156;2023-05-21T11:32:11;11.07;;;6.05;;
789;SDS011;378;48.844;9.156;2023-05-21T11:34:40;9.38;;;5.80;;
789;SDS011;378;48.844;9.156;2023-05-21T11:37:25;8.98;;;5.97;;
789;SDS011;378;48.844;9.156;2023-05-21T11:39:54;10.20;;;6.50;;
789;SDS011;378;48.844;9.156;2023-05-21T11:42:29;8.75;;;6.32;;
789;SDS011;378;48.844;9.156;2023-05-21T11:44:57;10.32;;;5.97;;
789;SDS011;378;48.844;9.156;2023-05-21T11:47:25;8.88;;;6.20;;
789;SDS011;378;48.844;9.156;2023-05-21T11:49:53;7.97;;;5.78;;
789;SDS011;378;48.844;9.156;2023-05-21T11:52:21;7.30;;;5.97;;
789;SDS011;378;48.844;9.156;2023-05-21T11:54:52;7.88;;;5.72;;
789;SDS011;378;48.844;9.156;2023-05-21T11:57:21;7.13;;;6.03;;
789;SDS011;378;48.844;9.156;2023-05-21T11:59:50;8.68;;;6.20;;
789;SDS011;378;48.844;9.156;2023-05-21T12:02:17;9.25;;;6.50;;
789;SDS011;378;48.844;9.156;2023-05-21T12:04:46;9.43;;;5.55;;
789;SDS011;378;48.844;9.156;2023-05-21T12:07:13;11.27;;;6.75;;
789;SDS011;378;48.844;9.156;2023-05-21T12:09:42;8.57;;;6.00;;
789;SDS011;378;48.844;9.156;2023-05-21T12:12:11;7.82;;;5.72;;
789;SDS011;378;48.844;9.156;2023-05-21T12:14:41;11.18;;;6.00;;
789;SDS011;378;48.844;9.156;2023-05-21T12:17:09;8.98;;;5.80;;
789;SDS011;378;48.844;9.156;2023-05-21T12:19:37;9.13;;;6.30;;
789;SDS011;378;48.844;9.156;2023-05-21T12:22:05;7.75;;;5.68;;
789;SDS011;378;48.844;9.156;2023-05-21T12:24:32;7.50;;;5.13;;
789;SDS011;378;48.844;9.156;2023-05-21T12:27:00;7.00;;;5.32;;
789;SDS011;378;48.844;9.156;2023-05-21T12:29:35;10.82;;;6.07;;
789;SDS011;378;48.844;9.156;2023-05-21T12:32:03;9.93;;;5.55;;
789;SDS011;378;48.844;9.156;2023-05-21T12:34:36;7.55;;;5.50;;
789;SDS011;378;48.844;9.156;2023-05-21T12:37:03;7.88;;;5.25;;
789;SDS011;378;48.844;9.156;2023-05-21T12:39:31;8.77;;;5.60;;
789;SDS011;378;48.844;9.156;2023-05-21T12:41:59;8.98;;;6.20;;
789;SDS011;378;48.844;9.156;2023-05-21T12:44:28;6.97;;;5.30;;
789;SDS011;378;48.844;9.156;2023-05-21T12:46:57;9.88;;;5.65;;
789;SDS011;378;48.844;9.156;2023-05-21T12:49:34;9.15;;;6.03;;
789;SDS011;378;48.844;9.156;2023-05-21T12:52:06;9.35;;;5.30;;
789;SDS011;378;48.844;9.156;2023-05-21T12:54:36;9.10;;;5.28;;
789;SDS011;378;48.844;9.156;2023-05-21T12:57:10;8.25;;;5.75;;
789;SDS011;378;48.844;9.156;2023-05-21T12:59:44;6.95;;;5.35;;
789;SDS011;378;48.844;9.156;2023-05-21T13:02:14;11.13;;;5.38;;
789;SDS011;378;48.844;9.156;2023-05-21T13:04:43;7.43;;;5.60;;
789;SDS011;378;48.844;9.156;2023-05-21T13:07:11;6.68;;;5.40;;
789;SDS011;378;48.844;9.156;2023-05-21T13:09:38;8.93;;;5.47;;
789;SDS011;378;48.844;9.156;2023-05-21T13:12:05;9.93;;;5.53;;
789;SDS011;378;48.844;9.156;2023-05-21T13:14:32;7.90;;;5.68;;
789;SDS011;378;48.844;9.156;2023-05-21T13:16:59;10.57;;;5.57;;
789;SDS011;378;48.844;9.156;2023-05-21T13:19:27;9.52;;;5.10;;
789;SDS011;378;48.844;9.156;2023-05-21T13:21:54;7.07;;;5.30;;
789;SDS011;378;48.844;9.156;2023-05-21T13:24:20;8.05;;;5.13;;
789;SDS011;378;48.844;9.156;2023-05-21T13:26:47;9.20;;;5.00;;
789;SDS011;378;48.844;9.156;2023-05-21T13:29:14;8.52;;;5.40;;
789;SDS011;378;48.844;9.156;2023-05-21T13:31:41;7.60;;;5.15;;
789;SDS011;378;48.844;9.156;2023-05-21T13:34:09;9.40;;;5.47;;
789;SDS011;378;48.844;9.156;2023-05-21T13:36:37;7.43;;;4.95;;
789;SDS011;378;48.844;9.156;2023-05-21T13:39:04;6.90;;;4.55;;
789;SDS011;378;48.844;9.156;2023-05-21T13:41:31;9.20;;;4.70;;
789;SDS011;378;48.844;9.156;2023-05-21T13:43:58;9.70;;;4.72;;
789;SDS011;378;48.844;9.156;2023-05-21T13:46:25;7.40;;;4.90;;
789;SDS011;378;48.844;9.156;2023-05-21T13:48:52;7.80;;;4.90;;
789;SDS011;378;48.844;9.156;2023-05-21T13:51:19;7.50;;;4.43;;
789;SDS011;378;48.844;9.156;2023-05-21T13:53:47;7.88;;;5.40;;
789;SDS011;378;48.844;9.156;2023-05-21T13:56:14;9.02;;;5.22;;
789;SDS011;378;48.844;9.156;2023-05-21T13:58:41;10.68;;;5.40;;
789;SDS011;378;48.844;9.156;2023-05-21T14:01:07;7.60;;;4.70;;
789;SDS011;378;48.844;9.156;2023-05-21T14:03:34;7.80;;;4.40;;
789;SDS011;378;48.844;9.156;2023-05-21T14:06:01;10.65;;;4.22;;
789;SDS011;378;48.844;9.156;2023-05-21T14:08:28;9.50;;;4.50;;
789;SDS011;378;48.844;9.156;2023-05-21T14:10:56;8.52;;;4.43;;
789;SDS011;378;48.844;9.156;2023-05-21T14:13:23;5.57;;;3.97;;
789;SDS011;378;48.844;9.156;2023-05-21T14:15:51;6.10;;;4.20;;
789;SDS011;378;48.844;9.156;2023-05-21T14:18:18;5.45;;;4.32;;
789;SDS011;378;48.844;9.156;2023-05-21T14:20:44;6.05;;;4.40;;
789;SDS011;378;48.844;9.156;2023-05-21T14:23:11;8.93;;;4.72;;
789;SDS011;378;48.844;9.156;2023-05-21T14:25:39;6.82;;;4.30;;
789;SDS011;378;48.844;9.156;2023-05-21T14:28:08;5.97;;;4.25;;
789;SDS011;378;48.844;9.156;2023-05-21T14:30:35;8.55;;;4.65;;
789;SDS011;378;48.844;9.156;2023-05-21T14:33:01;9.00;;;4.00;;
789;SDS011;378;48.844;9.156;2023-05-21T14:35:29;6.85;;;4.30;;
789;SDS011;378;48.844;9.156;2023-05-21T14:37:55;5.00;;;4.05;;
789;SDS011;378;48.844;9.156;2023-05-21T14:40:22;10.63;;;4.60;;
789;SDS011;378;48.844;9.156;2023-05-21T14:42:49;4.78;;;3.72;;
789;SDS011;378;48.844;9.156;2023-05-21T14:45:18;10.05;;;4.40;;
789;SDS011;378;48.844;9.156;2023-05-21T14:47:45;6.18;;;3.63;;
789;SDS011;378;48.844;9.156;2023-05-21T14:50:13;7.35;;;3.70;;
789;SDS011;378;48.844;9.156;2023-05-21T14:52:41;5.47;;;3.28;;
789;SDS011;378;48.844;9.156;2023-05-21T14:55:08;9.30;;;3.10;;
789;SDS011;378;48.844;9.156;2023-05-21T14:57:36;8.07;;;3.30;;
789;SDS011;378;48.844;9.156;2023-05-21T15:00:03;6.40;;;3.45;;
789;SDS011;378;48.844;9.156;2023-05-21T15:02:32;5.95;;;3.65;;
789;SDS011;378;48.844;9.156;2023-05-21T15:04:59;8.70;;;5.47;;
789;SDS011;378;48.844;9.156;2023-05-21T15:07:26;7.75;;;4.90;;
789;SDS011;378;48.844;9.156;2023-05-21T15:09:53;7.85;;;3.58;;
789;SDS011;378;48.844;9.156;2023-05-21T15:12:19;5.72;;;3.90;;
789;SDS011;378;48.844;9.156;2023-05-21T15:14:46;6.38;;;3.80;;
789;SDS011;378;48.844;9.156;2023-05-21T15:17:14;7.63;;;4.32;;
789;SDS011;378;48.844;9.156;2023-05-21T15:19:42;7.00;;;3.83;;
789;SDS011;378;48.844;9.156;2023-05-21T15:22:09;8.00;;;4.40;;
789;SDS011;378;48.844;9.156;2023-05-21T15:24:35;5.35;;;4.10;;
789;SDS011;378;48.844;9.156;2023-05-21T15:27:02;7.65;;;4.82;;
789;SDS011;378;48.844;9.156;2023-05-21T15:29:29;9.93;;;4.85;;
789;SDS011;378;48.844;9.156;2023-05-21T15:31:56;7.30;;;5.05;;
789;SDS011;378;48.844;9.156;2023-05-21T15:34:25;7.65;;;3.95;;
789;SDS011;378;48.844;9.156;2023-05-21T15:36:53;6.82;;;4.50;;
789;SDS011;378;48.844;9.156;2023-05-21T15:39:21;7.28;;;4.32;;
789;SDS011;378;48.844;9.156;2023-05-21T15:41:48;5.68;;;4.15;;
789;SDS011;378;48.844;9.156;2023-05-21T15:44:17;5.28;;;4.45;;